Terminal Aerodrome Forecast
Issued by NWS

Home | Current Version | Previous Version | Text Only | Print | Product List | Glossary On
Versions: 1 2 3 4 5 6 7 8 9 10 11 12 13 14 15 16 17 18 19 20
000
FTUS43 KJKL 300534
TAFSME
TAF
KSME 300534Z 3006/3106 VRB03KT 6SM BR BKN250
     FM301000 VRB03KT 2SM BR SCT020
     FM301300 33004KT P6SM SCT035
     FM301500 33007KT P6SM SKC=

USA.gov is the U.S. government's official web portal to all federal, state and local government web resources and services.